Time;durP1;ratioP1;P1;durP2;ratioP2;P2;SDS_P1;SDS_P2;PMS_P1;PMS_P2;Temp;Humidity;BMP_temperature;BMP_pressure;BME280_temperature;BME280_humidity;BME280_pressure;Samples;Min_cycle;Max_cycle;Signal;HPM_P1;HPM_P2
2021/12/15 00:01:05;;;;;;;3.38;3.17;;;;;;;5.13;100.00;100160.25;4935784;29;20027;-67
2021/12/15 00:03:31;;;;;;;6.32;3.70;;;;;;;5.09;100.00;100156.75;4934871;29;20054;-67
2021/12/15 00:05:57;;;;;;;7.40;5.50;;;;;;;5.07;100.00;100155.81;4935560;29;20062;-67
2021/12/15 00:08:23;;;;;;;3.90;3.60;;;;;;;5.10;100.00;100160.16;4935666;29;20087;-68
2021/12/15 00:10:49;;;;;;;4.07;3.55;;;;;;;5.10;100.00;100158.47;4935679;29;20034;-68
2021/12/15 00:13:16;;;;;;;3.47;2.33;;;;;;;5.06;100.00;100163.50;4935800;29;20106;-67
2021/12/15 00:15:43;;;;;;;8.90;5.20;;;;;;;5.10;100.00;100160.16;4935668;29;20027;-67
2021/12/15 00:18:09;;;;;;;2.92;2.60;;;;;;;5.02;100.00;100157.38;4935481;29;20059;-67
2021/12/15 00:20:35;;;;;;;3.75;3.20;;;;;;;5.03;100.00;100158.25;4935537;29;20078;-68
2021/12/15 00:23:02;;;;;;;5.90;3.25;;;;;;;5.00;100.00;100164.19;4935304;29;20112;-68
2021/12/15 00:25:31;;;;;;;4.80;4.30;;;;;;;5.08;100.00;100165.28;4935472;29;20039;-67
2021/12/15 00:27:58;;;;;;;4.57;3.27;;;;;;;5.01;100.00;100159.94;4935248;29;20059;-67
2021/12/15 00:30:23;;;;;;;3.00;2.78;;;;;;;4.99;100.00;100157.34;4935215;29;20046;-68
2021/12/15 00:32:50;;;;;;;3.88;3.25;;;;;;;4.92;100.00;100154.53;4935392;29;20023;-67
2021/12/15 00:35:16;;;;;;;7.60;4.15;;;;;;;4.95;100.00;100167.47;4935195;29;20074;-67
2021/12/15 00:37:41;;;;;;;4.03;3.65;;;;;;;4.90;100.00;100163.09;4934839;29;20032;-68
2021/12/15 00:40:10;;;;;;;3.60;3.33;;;;;;;4.92;100.00;100157.09;4935056;29;20034;-67
2021/12/15 00:42:36;;;;;;;7.63;2.90;;;;;;;4.94;100.00;100158.03;4935072;29;20024;-67
2021/12/15 00:45:03;;;;;;;4.53;3.95;;;;;;;4.93;100.00;100166.53;4935077;29;20024;-67
2021/12/15 00:47:29;;;;;;;3.28;2.65;;;;;;;4.99;100.00;100166.75;4934942;29;20396;-68
2021/12/15 00:49:54;;;;;;;5.78;4.93;;;;;;;5.04;100.00;100162.59;4934977;29;20020;-67
2021/12/15 00:52:20;;;;;;;8.65;4.80;;;;;;;5.04;100.00;100162.59;4935201;29;20055;-67
2021/12/15 00:54:45;;;;;;;4.68;4.18;;;;;;;5.13;100.00;100167.97;4935010;29;20054;-68
2021/12/15 00:57:10;;;;;;;3.15;2.88;;;;;;;5.19;100.00;100165.56;4934877;29;20473;-67
2021/12/15 00:59:36;;;;;;;9.07;5.65;;;;;;;5.29;100.00;100172.66;4934983;29;20027;-67
2021/12/15 05:15:49;;;;;;;4.20;3.80;;;;;;;5.03;100.00;100217.34;5716268;23;20051;-70
2021/12/15 05:18:15;;;;;;;2.67;2.47;;;;;;;5.06;100.00;100220.00;4952628;29;20294;-71
2021/12/15 05:20:45;;;;;;;9.98;5.57;;;;;;;5.10;100.00;100221.81;4953903;28;20056;-70
2021/12/15 05:23:13;;;;;;;4.00;3.47;;;;;;;5.02;100.00;100223.31;4953927;28;20027;-70
2021/12/15 05:25:39;;;;;;;7.55;3.60;;;;;;;5.05;100.00;100223.41;4953782;28;20031;-70
2021/12/15 05:28:04;;;;;;;5.95;4.65;;;;;;;5.08;100.00;100219.22;4952446;29;20027;-70
2021/12/15 05:30:30;;;;;;;4.15;3.53;;;;;;;5.12;100.00;100220.16;4954112;28;20090;-70
2021/12/15 05:32:55;;;;;;;3.83;3.53;;;;;;;5.12;100.00;100227.88;4953921;29;20103;-70
2021/12/15 05:35:23;;;;;;;6.47;4.43;;;;;;;5.08;100.00;100228.63;4953688;29;20055;-71
2021/12/15 05:37:52;;;;;;;3.20;2.97;;;;;;;5.11;100.00;100228.69;4953556;28;20030;-70
2021/12/15 05:40:18;;;;;;;4.25;3.22;;;;;;;5.11;100.00;100229.56;4953752;28;20069;-70
2021/12/15 05:42:44;;;;;;;4.20;2.72;;;;;;;5.12;100.00;100230.44;4953762;28;20476;-71
2021/12/15 05:45:10;;;;;;;7.95;4.28;;;;;;;5.01;100.00;100242.13;4953552;28;20082;-70
2021/12/15 05:47:36;;;;;;;3.70;2.80;;;;;;;4.90;100.00;100245.25;4953666;28;20685;-71
2021/12/15 05:50:06;;;;;;;3.70;2.85;;;;;;;4.93;100.00;100241.03;4953572;28;20113;-70
2021/12/15 05:52:31;;;;;;;;;;;;;;;4.93;100.00;100243.59;4953960;28;20032;-70
2021/12/15 05:54:58;;;;;;;2.70;2.45;;;;;;;4.97;100.00;100243.72;4953666;28;19910;-70
2021/12/15 05:57:24;;;;;;;4.35;3.78;;;;;;;4.96;100.00;100243.69;4953258;28;20085;-70
2021/12/15 05:59:49;;;;;;;8.80;3.13;;;;;;;5.02;100.00;100246.41;4952472;28;20641;-70
2021/12/15 06:02:15;;;;;;;5.40;3.25;;;;;;;5.03;100.00;100245.59;4955354;28;20388;-70
2021/12/15 06:04:40;;;;;;;5.20;4.20;;;;;;;4.99;100.00;100248.94;4957289;28;20110;-70
2021/12/15 06:07:05;;;;;;;3.53;3.20;;;;;;;5.03;100.00;100255.88;4956716;28;20026;-70
2021/12/15 06:09:32;;;;;;;4.50;4.10;;;;;;;5.03;100.00;100255.88;4957023;28;20023;-70
2021/12/15 06:11:58;;;;;;;8.82;4.07;;;;;;;5.03;100.00;100272.16;4957010;28;20473;-70
2021/12/15 06:14:24;;;;;;;5.65;3.92;;;;;;;5.10;100.00;100268.94;4956952;28;20030;-70
2021/12/15 06:17:00;;;;;;;19.25;6.47;;;;;;;5.16;100.00;100263.09;4956620;28;20374;-70
2021/12/15 06:19:25;;;;;;;8.48;4.10;;;;;;;5.11;100.00;100259.53;4956874;28;20031;-70
2021/12/15 06:21:51;;;;;;;10.15;5.82;;;;;;;5.14;100.00;100259.63;4956822;28;20031;-70
2021/12/15 06:24:16;;;;;;;3.22;2.92;;;;;;;5.18;100.00;100265.72;4956747;28;20028;-70
2021/12/15 06:26:42;;;;;;;10.15;6.10;;;;;;;5.10;100.00;100262.94;4956492;28;20035;-70
2021/12/15 06:29:07;;;;;;;3.72;3.30;;;;;;;5.04;100.00;100261.06;4956733;28;20077;-70
2021/12/15 06:31:33;;;;;;;4.20;3.42;;;;;;;5.06;100.00;100268.81;4956742;28;20500;-70
2021/12/15 06:33:58;;;;;;;5.60;4.53;;;;;;;5.03;100.00;100266.13;4956724;28;20027;-70
2021/12/15 06:36:25;;;;;;;2.30;2.17;;;;;;;5.08;100.00;100265.47;4956262;28;20496;-70
2021/12/15 06:38:53;;;;;;;6.03;3.03;;;;;;;5.05;100.00;100279.91;4956251;28;20038;-70
2021/12/15 06:41:20;;;;;;;5.07;4.20;;;;;;;5.11;100.00;100278.38;4956507;28;20377;-70
2021/12/15 06:43:54;;;;;;;5.68;4.63;;;;;;;5.09;100.00;100277.47;4956268;28;20027;-70
2021/12/15 07:00:07;;;;;;;2.55;2.35;;;;;;;5.11;100.00;100290.34;4896845;29;20453;-68
2021/12/15 07:02:33;;;;;;;5.65;4.50;;;;;;;5.15;100.00;100297.31;4946744;28;20039;-70
2021/12/15 07:04:58;;;;;;;13.55;3.90;;;;;;;5.16;100.00;100289.66;4956048;28;20042;-69
2021/12/15 07:07:24;;;;;;;10.82;4.35;;;;;;;5.08;100.00;100300.56;4955594;28;20155;-69
2021/12/15 07:09:49;;;;;;;5.57;2.58;;;;;;;5.01;100.00;100304.63;4956037;28;20030;-69
2021/12/15 07:12:15;;;;;;;6.68;3.75;;;;;;;5.01;100.00;100304.63;4954674;28;20499;-68
2021/12/15 07:14:40;;;;;;;3.53;3.22;;;;;;;5.01;100.00;100308.91;4955838;28;20174;-68
2021/12/15 07:17:10;;;;;;;3.63;3.33;;;;;;;5.13;100.00;100309.28;4955616;28;20539;-68
2021/12/15 07:20:03;;;;;;;3.30;2.88;;;;;;;5.13;100.00;100322.13;4955785;28;20110;-68
2021/12/15 07:22:34;;;;;;;5.78;3.30;;;;;;;5.11;100.00;100322.03;4955684;28;20043;-68
2021/12/15 07:25:02;;;;;;;6.28;3.22;;;;;;;5.15;100.00;100323.00;4955773;28;20034;-68
2021/12/15 07:27:27;;;;;;;6.10;3.80;;;;;;;5.27;100.00;100328.53;4955293;28;20396;-68
2021/12/15 07:29:53;;;;;;;6.57;4.00;;;;;;;5.18;100.00;100338.53;4955604;28;20028;-68
2021/12/15 07:32:18;;;;;;;3.85;2.58;;;;;;;5.26;100.00;100341.31;4955779;28;20026;-68
2021/12/15 07:34:44;;;;;;;4.82;3.50;;;;;;;5.17;100.00;100344.47;4955553;28;20484;-68
2021/12/15 07:37:10;;;;;;;4.70;3.13;;;;;;;5.20;100.00;100342.00;4955063;28;20082;-68
2021/12/15 07:39:37;;;;;;;2.83;2.55;;;;;;;5.15;100.00;100339.28;4955314;28;20038;-68
2021/12/15 07:42:09;;;;;;;3.05;2.83;;;;;;;5.11;100.00;100341.72;4954179;29;20038;-68
2021/12/15 07:44:36;;;;;;;11.00;3.70;;;;;;;5.15;100.00;100349.56;4955253;28;20472;-68
2021/12/15 07:47:03;;;;;;;3.58;3.28;;;;;;;5.19;100.00;100347.97;4955293;28;20047;-68
2021/12/15 07:49:29;;;;;;;1.85;1.75;;;;;;;5.25;100.00;100348.13;4955426;28;20027;-68
2021/12/15 07:52:02;;;;;;;5.18;4.05;;;;;;;5.29;100.00;100351.69;4955183;28;20027;-68
2021/12/15 07:54:30;;;;;;;2.05;1.80;;;;;;;5.22;100.00;100355.78;4955108;28;20019;-68
2021/12/15 07:56:56;;;;;;;2.97;2.78;;;;;;;5.25;100.00;100355.84;4955051;28;20034;-68
2021/12/15 07:59:21;;;;;;;5.80;2.35;;;;;;;5.27;100.00;100364.50;4955073;28;20034;-68
2021/12/15 08:01:47;;;;;;;4.93;3.50;;;;;;;5.24;100.00;100358.38;4955027;28;20035;-68
2021/12/15 08:04:12;;;;;;;2.85;2.65;;;;;;;5.27;100.00;100354.22;4954914;28;20028;-68
2021/12/15 08:06:38;;;;;;;4.63;2.53;;;;;;;5.28;100.00;100353.38;4954394;28;20063;-68
2021/12/15 08:09:04;;;;;;;2.38;2.17;;;;;;;5.19;100.00;100355.69;4954830;28;20039;-68
2021/12/15 08:11:30;;;;;;;3.13;1.60;;;;;;;5.23;100.00;100360.09;4954837;28;20030;-68
2021/12/15 08:13:57;;;;;;;3.42;3.13;;;;;;;5.27;100.00;100359.34;4954855;28;20027;-68
2021/12/15 08:16:23;;;;;;;3.05;2.75;;;;;;;5.35;100.00;100363.00;4954453;28;20412;-68
2021/12/15 08:18:48;;;;;;;4.10;2.45;;;;;;;5.30;100.00;100366.25;4954945;28;20031;-68
2021/12/15 08:21:14;;;;;;;1.42;1.38;;;;;;;5.32;100.00;100368.06;4954677;28;20023;-68
2021/12/15 08:23:39;;;;;;;2.15;1.90;;;;;;;5.37;100.00;100366.50;4954048;28;20035;-68
2021/12/15 08:26:05;;;;;;;3.00;2.80;;;;;;;5.46;100.00;100365.00;4954268;28;20192;-68
2021/12/15 08:28:31;;;;;;;2.55;2.38;;;;;;;5.43;100.00;100375.22;4954537;28;20035;-68
2021/12/15 08:30:59;;;;;;;5.93;2.97;;;;;;;5.46;99.86;100372.69;4954623;28;20058;-68
2021/12/15 08:33:25;;;;;;;4.05;2.55;;;;;;;5.51;99.55;100368.56;4954506;28;20027;-68
2021/12/15 08:35:53;;;;;;;3.33;3.13;;;;;;;5.53;98.78;100372.06;4954089;28;20126;-68
2021/12/15 08:38:19;;;;;;;1.83;1.73;;;;;;;5.64;99.00;100374.09;4954198;28;20030;-68
2021/12/15 08:40:46;;;;;;;2.72;2.17;;;;;;;5.62;98.42;100373.19;4953409;29;20027;-68
2021/12/15 08:43:13;;;;;;;2.67;2.47;;;;;;;5.68;98.67;100377.63;4954366;28;20024;-69
2021/12/15 08:45:41;;;;;;;4.45;2.38;;;;;;;5.76;98.24;100375.28;4954241;28;20119;-70
2021/12/15 08:48:09;;;;;;;3.78;2.80;;;;;;;5.67;96.97;100383.59;4954605;28;20031;-69
2021/12/15 08:50:37;;;;;;;2.38;2.20;;;;;;;5.61;97.14;100375.72;4954145;28;20106;-69
2021/12/15 08:53:04;;;;;;;7.38;2.90;;;;;;;5.74;97.18;100377.78;4954144;28;20109;-70
2021/12/15 08:55:30;;;;;;;4.15;2.63;;;;;;;5.59;96.44;100387.66;4954232;28;20473;-70
2021/12/15 08:57:58;;;;;;;5.32;2.75;;;;;;;5.65;96.60;100383.53;4952727;29;20031;-70
2021/12/15 09:00:25;;;;;;;2.60;2.40;;;;;;;5.62;96.58;100387.75;4954154;28;20031;-70
2021/12/15 09:02:51;;;;;;;2.22;2.03;;;;;;;5.64;96.01;100383.50;4954522;28;20027;-71
2021/12/15 09:05:20;;;;;;;4.57;2.58;;;;;;;5.64;95.16;100391.22;4953861;28;20456;-71
2021/12/15 09:07:48;;;;;;;4.33;2.23;;;;;;;5.66;95.32;100394.72;4953925;28;20019;-69
2021/12/15 09:10:14;;;;;;;1.75;1.65;;;;;;;5.63;94.66;100384.34;4954094;28;20050;-69
2021/12/15 09:12:39;;;;;;;2.60;2.30;;;;;;;5.63;94.03;100384.34;4953986;28;20101;-69
2021/12/15 09:15:06;;;;;;;3.25;2.28;;;;;;;5.64;93.45;100391.22;4953949;28;20110;-69
2021/12/15 09:17:32;;;;;;;4.10;1.92;;;;;;;5.73;93.51;100395.75;4953541;28;20035;-69
2021/12/15 09:19:57;;;;;;;1.17;1.17;;;;;;;5.77;94.06;100392.44;4953804;28;20039;-69
2021/12/15 09:22:22;;;;;;;1.70;1.60;;;;;;;5.77;93.57;100395.88;4954080;28;20023;-69
2021/12/15 09:24:48;;;;;;;2.92;1.80;;;;;;;5.74;92.92;100393.22;4953728;28;20117;-69
2021/12/15 09:27:13;;;;;;;9.57;1.83;;;;;;;5.67;92.95;100392.19;4953734;28;20027;-69
2021/12/15 09:29:38;;;;;;;1.52;1.42;;;;;;;5.73;92.51;100396.63;4953868;28;20019;-69
2021/12/15 09:32:04;;;;;;;2.10;1.73;;;;;;;5.91;92.00;100392.00;4953893;28;20038;-69
2021/12/15 09:34:30;;;;;;;2.55;1.70;;;;;;;5.89;91.94;100392.75;4953539;28;20019;-69
2021/12/15 09:36:57;;;;;;;0.85;0.85;;;;;;;5.89;90.97;100388.47;4957081;28;20039;-69
2021/12/15 09:39:24;;;;;;;2.00;1.75;;;;;;;5.82;90.89;100386.59;4957448;28;20027;-69
2021/12/15 09:41:51;;;;;;;3.50;1.90;;;;;;;5.82;90.78;100399.44;4957630;28;20070;-69
2021/12/15 09:44:21;;;;;;;2.75;2.30;;;;;;;5.90;90.45;100395.41;4957463;28;20492;-69
2021/12/15 10:03:11;;;;;;;1.27;1.27;;;;;;;6.16;90.26;100392.66;4957411;29;20034;-69
2021/12/15 10:19:28;;;;;;;2.85;2.20;;;;;;;6.03;89.57;100394.03;4957044;29;20070;-67
2021/12/15 10:22:06;;;;;;;1.98;1.83;;;;;;;6.18;86.84;100394.41;4956862;28;20026;-67
2021/12/15 10:24:45;;;;;;;2.25;1.75;;;;;;;5.93;88.26;100390.34;4956704;28;20476;-67
2021/12/15 10:27:12;;;;;;;2.90;2.13;;;;;;;5.99;88.92;100388.75;4956768;28;20130;-67
2021/12/15 10:29:56;;;;;;;1.88;1.13;;;;;;;5.98;87.78;100387.03;4956757;28;20027;-67
2021/12/15 10:32:29;;;;;;;1.35;0.88;;;;;;;6.06;86.46;100388.09;4956706;28;20026;-67
2021/12/15 10:35:08;;;;;;;0.70;0.70;;;;;;;5.88;86.81;100386.75;4956644;28;20035;-67
2021/12/15 10:37:34;;;;;;;1.42;1.35;;;;;;;6.06;85.64;100382.97;4956370;28;20023;-67
2021/12/15 10:40:20;;;;;;;0.93;0.65;;;;;;;6.04;87.22;100392.31;4956485;28;20178;-67
2021/12/15 10:42:46;;;;;;;1.17;1.17;;;;;;;5.92;86.09;100393.75;4956431;28;20027;-67
2021/12/15 10:45:15;;;;;;;0.80;0.80;;;;;;;5.91;85.53;100384.28;4956352;28;20505;-68
2021/12/15 10:47:43;;;;;;;0.70;0.70;;;;;;;5.72;86.66;100384.59;4955320;28;20035;-69
2021/12/15 10:50:15;;;;;;;2.03;1.00;;;;;;;5.91;85.52;100386.88;4956496;28;20031;-71
2021/12/15 10:52:59;;;;;;;0.77;0.77;;;;;;;5.95;85.97;100381.78;4956377;28;20103;-70
2021/12/15 10:55:35;;;;;;;0.90;0.90;;;;;;;5.81;86.00;100382.28;4956283;28;20034;-70
2021/12/15 10:58:00;;;;;;;0.50;0.50;;;;;;;5.99;85.04;100388.75;4956125;28;20460;-70
2021/12/15 11:00:32;;;;;;;1.02;1.02;;;;;;;6.03;84.96;100382.88;4956226;28;20065;-69
2021/12/15 11:03:05;;;;;;;1.67;1.58;;;;;;;6.05;85.21;100379.53;4956104;28;20484;-70
2021/12/15 11:05:34;;;;;;;0.68;0.68;;;;;;;6.01;85.08;100387.13;4956080;28;20028;-70
2021/12/15 11:07:59;;;;;;;0.52;0.52;;;;;;;6.15;84.21;100386.66;4955792;28;20498;-71
2021/12/15 11:10:37;;;;;;;1.20;1.20;;;;;;;5.90;83.73;100374.81;4956032;28;20052;-71
2021/12/15 11:13:12;;;;;;;1.27;1.17;;;;;;;5.76;85.04;100376.16;4956059;28;20019;-71
2021/12/15 11:15:40;;;;;;;0.82;0.82;;;;;;;5.93;85.20;100374.91;4955763;28;20038;-69
2021/12/15 11:18:28;;;;;;;0.82;0.82;;;;;;;5.91;85.69;100374.00;4955915;28;20480;-69
2021/12/15 11:20:58;;;;;;;1.00;1.00;;;;;;;5.87;84.84;100374.72;4955848;28;20035;-69
2021/12/15 11:23:25;;;;;;;;;;;;;;;5.81;85.53;100369.41;4956223;28;20024;-67
2021/12/15 11:25:59;;;;;;;0.85;0.85;;;;;;;5.96;85.73;100373.25;4955378;29;19950;-67
2021/12/15 11:28:28;;;;;;;1.00;0.90;;;;;;;5.95;85.65;100371.50;4955717;28;20082;-68
2021/12/15 11:31:13;;;;;;;0.88;0.88;;;;;;;5.99;84.24;100365.59;4984397;23;20067;-70
2021/12/15 11:33:51;;;;;;;0.98;0.93;;;;;;;6.13;84.30;100361.69;4936520;29;20035;-70
2021/12/15 11:36:25;;;;;;;0.70;0.70;;;;;;;5.88;85.35;100365.28;4936165;29;20392;-70
2021/12/15 11:39:16;;;;;;;0.90;0.90;;;;;;;5.98;84.88;100366.44;4936268;29;20111;-70
2021/12/15 11:41:47;;;;;;;0.75;0.75;;;;;;;6.00;83.72;100359.66;4950457;29;20090;-70
2021/12/15 11:44:15;;;;;;;0.68;0.68;;;;;;;5.96;84.38;100357.84;4955421;28;20031;-71
2021/12/15 11:46:44;;;;;;;0.73;0.73;;;;;;;5.97;83.72;100362.13;4955181;28;20476;-70
2021/12/15 11:49:18;;;;;;;0.70;0.70;;;;;;;5.86;84.08;100354.97;4955363;28;20030;-70
2021/12/15 11:52:09;;;;;;;0.88;0.88;;;;;;;5.91;83.90;100350.84;4955048;28;20118;-70
2021/12/15 11:54:38;;;;;;;1.00;1.00;;;;;;;5.95;84.07;100356.06;4955332;28;20527;-70
2021/12/15 11:57:22;;;;;;;1.20;1.20;;;;;;;5.98;83.76;100351.00;4954986;28;20023;-70
2021/12/15 11:59:49;;;;;;;1.33;1.23;;;;;;;5.81;84.70;100348.84;4955125;28;20035;-70
2021/12/15 12:02:42;;;;;;;1.13;1.13;;;;;;;5.89;84.16;100342.19;4954769;28;20318;-70
2021/12/15 12:05:12;;;;;;;0.82;0.82;;;;;;;5.89;84.39;100344.75;4954479;29;20122;-70
2021/12/15 12:07:46;;;;;;;0.93;0.93;;;;;;;5.84;84.36;100338.63;4954555;28;20039;-70
2021/12/15 12:10:17;;;;;;;1.45;0.75;;;;;;;5.79;84.38;100335.06;4935698;29;20488;-70
2021/12/15 12:12:53;;;;;;;0.90;0.90;;;;;;;5.85;84.10;100340.38;4935504;29;20036;-70
2021/12/15 12:15:24;;;;;;;1.63;1.08;;;;;;;5.75;84.33;100333.22;4935626;29;20102;-71
2021/12/15 12:17:52;;;;;;;0.98;0.98;;;;;;;5.92;83.75;100331.16;4935310;29;20081;-70
2021/12/15 12:20:30;;;;;;;0.95;0.95;;;;;;;6.03;83.17;100334.84;4935514;29;20023;-70
2021/12/15 12:22:57;;;;;;;1.00;0.90;;;;;;;6.01;83.80;100331.38;4935363;29;20024;-70
2021/12/15 12:25:27;;;;;;;1.00;1.00;;;;;;;5.99;84.26;100327.88;4935396;29;20065;-70
2021/12/15 12:27:54;;;;;;;0.73;0.73;;;;;;;6.03;84.46;100323.69;4935316;29;20023;-70
2021/12/15 12:30:26;;;;;;;0.95;0.95;;;;;;;5.87;84.12;100320.69;4935102;29;20039;-70
2021/12/15 12:32:53;;;;;;;0.88;0.88;;;;;;;5.91;84.21;100320.00;4935583;29;20085;-70
2021/12/15 12:35:22;;;;;;;0.60;0.60;;;;;;;5.84;83.83;100318.03;4935353;29;20259;-70
2021/12/15 12:37:54;;;;;;;1.15;1.10;;;;;;;5.67;84.85;100319.31;4952765;29;20038;-70
2021/12/15 12:40:44;;;;;;;1.17;1.15;;;;;;;5.67;84.17;100314.19;4954290;28;20038;-70
2021/12/15 12:43:27;;;;;;;1.38;1.30;;;;;;;5.74;84.02;100318.63;4953918;28;20032;-70
2021/12/15 12:46:19;;;;;;;0.70;0.70;;;;;;;5.67;83.87;100304.75;4952330;29;20042;-70
2021/12/15 12:49:23;;;;;;;0.77;0.77;;;;;;;5.63;84.80;100308.06;4954307;28;20027;-71
2021/12/15 12:58:01;;;;;;;0.85;0.80;;;;;;;5.65;85.13;100319.25;4954088;29;20034;-70
2021/12/15 13:00:50;;;;;;;0.77;0.77;;;;;;;5.73;84.32;100309.19;4953230;28;20030;-70
2021/12/15 13:03:35;;;;;;;1.00;0.70;;;;;;;5.65;84.64;100318.38;4953676;28;20031;-70
2021/12/15 13:06:03;;;;;;;0.93;0.93;;;;;;;5.66;85.16;100312.44;4953779;28;20102;-70
2021/12/15 13:08:34;;;;;;;0.73;0.73;;;;;;;5.63;84.70;100317.50;4953764;28;20027;-70
2021/12/15 13:11:10;;;;;;;0.88;0.88;;;;;;;5.52;85.17;100316.34;4953365;28;20042;-70
2021/12/15 13:14:05;;;;;;;1.42;1.00;;;;;;;5.39;85.22;100317.69;4953996;28;20520;-70
2021/12/15 13:16:41;;;;;;;0.90;0.70;;;;;;;5.36;85.56;100323.59;4953733;28;20031;-71
2021/12/15 13:19:12;;;;;;;0.98;0.98;;;;;;;5.23;85.95;100311.25;4953796;28;20098;-70
2021/12/15 13:21:48;;;;;;;0.95;0.95;;;;;;;5.55;84.84;100306.13;4953706;28;20027;-70
2021/12/15 13:30:42;;;;;;;1.73;1.63;;;;;;;5.45;86.05;100301.56;4953450;29;20522;-70
2021/12/15 13:33:13;;;;;;;1.65;0.77;;;;;;;5.44;85.85;100304.97;4953685;28;20025;-70
2021/12/15 13:35:51;;;;;;;1.13;1.08;;;;;;;5.45;86.02;100299.88;4953598;28;20515;-70
2021/12/15 13:38:41;;;;;;;14.95;3.08;;;;;;;5.61;85.89;100303.75;4953454;28;20083;-70
2021/12/15 13:41:24;;;;;;;1.33;1.33;;;;;;;5.58;85.97;100308.78;4923462;28;20054;-70
2021/12/15 13:43:54;;;;;;;2.08;1.70;;;;;;;5.50;85.92;100305.13;4953616;28;20396;-70
2021/12/15 13:46:38;;;;;;;;;;;;;;;5.44;86.14;100304.97;4953837;28;20027;-70
2021/12/15 13:49:09;;;;;;;1.38;1.27;;;;;;;5.32;86.38;100308.09;4953638;28;20000;-70
2021/12/15 13:51:53;;;;;;;2.83;1.67;;;;;;;5.26;86.65;100301.06;4953525;28;20027;-69
2021/12/15 13:54:33;;;;;;;2.00;1.90;;;;;;;5.21;87.43;100301.75;4953528;28;20524;-69
2021/12/15 13:57:27;;;;;;;1.48;1.38;;;;;;;5.29;87.45;100298.59;4953114;28;20042;-70
2021/12/15 13:59:52;;;;;;;5.97;1.30;;;;;;;5.29;86.98;100290.88;4953471;28;20037;-70
2021/12/15 14:02:21;;;;;;;3.50;1.33;;;;;;;5.30;87.35;100302.88;4953319;29;20486;-70
2021/12/15 14:04:47;;;;;;;1.85;1.75;;;;;;;5.35;87.41;100300.44;4952099;29;20160;-70
2021/12/15 14:07:49;;;;;;;3.55;2.95;;;;;;;5.37;87.83;100299.66;4952985;28;20536;-70
2021/12/15 14:10:15;;;;;;;3.13;1.63;;;;;;;5.38;87.39;100306.56;4918502;29;20408;-69
2021/12/15 14:12:46;;;;;;;5.00;1.42;;;;;;;5.27;87.71;100297.69;4934200;29;20024;-69
2021/12/15 14:15:35;;;;;;;1.90;1.10;;;;;;;5.28;87.84;100301.13;4934203;29;20036;-70
2021/12/15 14:18:12;;;;;;;1.17;1.15;;;;;;;5.30;87.89;100309.72;4933937;29;20107;-69
2021/12/15 14:20:37;;;;;;;1.10;1.10;;;;;;;5.22;88.21;100306.97;4934065;29;20400;-70
2021/12/15 14:23:15;;;;;;;1.40;1.40;;;;;;;5.20;88.17;100311.16;4935679;29;20028;-70
2021/12/15 14:25:40;;;;;;;3.55;1.08;;;;;;;5.19;88.14;100309.44;4937583;29;20043;-69
2021/12/15 14:28:19;;;;;;;1.13;1.10;;;;;;;5.20;88.17;100313.75;4937326;29;20032;-70
2021/12/15 14:30:50;;;;;;;2.60;1.33;;;;;;;5.25;88.45;100313.88;4945339;29;20042;-70
2021/12/15 14:33:23;;;;;;;0.70;0.70;;;;;;;5.21;88.50;100318.03;4956450;28;20019;-70
2021/12/15 14:35:51;;;;;;;1.80;1.70;;;;;;;5.30;88.64;100317.44;4956424;28;20115;-70
2021/12/15 14:38:17;;;;;;;1.80;1.70;;;;;;;5.35;88.72;100321.88;4956412;29;20038;-70
2021/12/15 14:40:42;;;;;;;1.52;1.48;;;;;;;5.31;88.46;100317.47;4956346;28;20027;-70
2021/12/15 14:43:11;;;;;;;1.48;1.38;;;;;;;5.28;88.54;100325.13;4956312;28;20397;-70
2021/12/15 14:45:37;;;;;;;2.40;2.20;;;;;;;5.25;88.67;100325.00;4956438;28;20110;-70
2021/12/15 14:48:16;;;;;;;1.20;1.20;;;;;;;5.22;88.73;100330.09;4956115;28;20067;-70
2021/12/15 14:50:42;;;;;;;1.83;1.73;;;;;;;5.35;88.12;100336.44;4956337;28;20023;-70
2021/12/15 14:53:08;;;;;;;1.08;0.98;;;;;;;5.21;88.58;100333.47;4956086;28;20030;-70
2021/12/15 14:55:34;;;;;;;1.38;1.35;;;;;;;5.26;88.78;100344.75;4956226;28;20023;-70
2021/12/15 14:57:59;;;;;;;1.33;1.17;;;;;;;5.31;88.49;100350.88;4956134;28;20118;-70
2021/12/15 15:00:30;;;;;;;1.73;1.63;;;;;;;5.35;88.83;100351.84;4956022;28;20178;-70
2021/12/15 15:03:02;;;;;;;1.42;1.33;;;;;;;5.33;87.94;100349.25;4955811;29;20038;-70
2021/12/15 15:05:33;;;;;;;0.73;0.73;;;;;;;5.18;88.61;100348.81;4956087;28;20031;-70
2021/12/15 15:08:07;;;;;;;0.90;0.90;;;;;;;5.15;88.57;100348.72;4954738;29;20089;-70
2021/12/15 15:10:36;;;;;;;0.80;0.80;;;;;;;5.18;88.75;100351.38;4956067;28;20027;-70
2021/12/15 15:13:02;;;;;;;1.02;1.02;;;;;;;5.09;89.13;100351.09;4953013;28;20174;-70
2021/12/15 15:15:36;;;;;;;1.70;1.60;;;;;;;5.06;88.86;100353.56;4955941;28;20109;-70
2021/12/15 15:20:52;;;;;;;2.03;1.33;;;;;;;5.08;89.00;100342.53;4956020;28;20035;-70
2021/12/15 15:23:22;;;;;;;0.98;0.98;;;;;;;5.12;88.93;100348.59;4955685;28;20027;-70
2021/12/15 15:25:52;;;;;;;1.60;1.50;;;;;;;5.04;88.88;100344.97;4955397;28;20043;-70
2021/12/15 15:28:22;;;;;;;1.27;1.23;;;;;;;5.07;89.23;100345.03;4955801;28;20031;-70
2021/12/15 15:30:48;;;;;;;;;;;;;;;5.07;89.22;100345.91;4955603;28;20027;-70
2021/12/15 15:33:18;;;;;;;1.08;1.08;;;;;;;5.03;89.62;100340.63;4955090;28;19933;-70
2021/12/15 15:35:46;;;;;;;;;;;;;;;5.09;89.79;100343.41;4955674;28;20079;-70
2021/12/15 15:38:15;;;;;;;1.05;1.05;;;;;;;5.08;89.75;100344.22;4955295;28;19937;-70
2021/12/15 15:40:52;;;;;;;2.22;1.98;;;;;;;5.00;90.22;100350.84;4955245;29;20033;-70
2021/12/15 15:43:22;;;;;;;0.82;0.82;;;;;;;5.03;90.19;100348.34;4955288;28;20071;-70
2021/12/15 15:45:53;;;;;;;1.38;1.27;;;;;;;5.16;88.69;100345.31;4955225;28;20039;-70
2021/12/15 15:48:25;;;;;;;1.20;1.20;;;;;;;5.14;88.93;100352.97;4955328;28;20019;-70
2021/12/15 15:50:59;;;;;;;1.25;1.25;;;;;;;5.12;90.19;100344.34;4955119;29;20114;-70
2021/12/15 15:53:24;;;;;;;1.20;1.13;;;;;;;5.14;88.62;100354.69;4955087;28;20035;-70
2021/12/15 15:55:55;;;;;;;1.85;1.75;;;;;;;5.12;89.39;100351.19;4954909;28;20099;-70
2021/12/15 15:58:21;;;;;;;0.98;0.90;;;;;;;5.19;89.09;100355.69;4955303;28;20126;-70
2021/12/15 16:00:52;;;;;;;1.10;1.10;;;;;;;5.15;90.08;100359.84;4954823;28;20086;-70
2021/12/15 16:03:21;;;;;;;1.27;1.17;;;;;;;5.18;90.43;100368.50;4954879;28;20074;-70
2021/12/15 16:05:48;;;;;;;1.90;1.80;;;;;;;5.09;89.54;100372.53;4954630;28;20035;-70
2021/12/15 16:08:16;;;;;;;0.80;0.80;;;;;;;5.03;89.80;100371.44;4954683;28;20031;-70
2021/12/15 16:10:44;;;;;;;1.00;1.00;;;;;;;5.05;89.94;100377.53;4954769;28;20114;-70
2021/12/15 16:13:13;;;;;;;0.45;0.45;;;;;;;5.04;89.33;100375.78;4953818;29;20027;-70
2021/12/15 16:16:10;;;;;;;2.78;1.83;;;;;;;5.10;89.46;100370.81;4954737;28;20519;-70
2021/12/15 16:18:43;;;;;;;0.95;0.80;;;;;;;5.05;88.89;100374.97;4946578;29;20130;-69
2021/12/15 16:22:50;;;;;;;2.28;1.40;;;;;;;5.09;89.50;100375.09;4954596;28;20031;-70
2021/12/15 16:24:15;;;;;;;1.75;1.25;;;;;;;5.08;89.23;100372.50;4954436;29;20507;-70
2021/12/15 16:26:42;;;;;;;1.05;0.85;;;;;;;5.07;89.17;100381.88;4954466;28;20038;-70
2021/12/15 16:29:18;;;;;;;1.48;1.38;;;;;;;5.17;88.97;100380.44;4954496;28;20027;-70
2021/12/15 16:32:13;;;;;;;1.80;1.40;;;;;;;5.23;88.20;100387.47;4954234;28;20488;-70
2021/12/15 16:34:45;;;;;;;1.10;1.08;;;;;;;5.19;88.73;100386.50;4947709;29;20233;-70
2021/12/15 16:37:23;;;;;;;1.77;1.60;;;;;;;5.10;88.88;100393.94;4953995;28;20031;-70
2021/12/15 16:39:50;;;;;;;1.77;1.67;;;;;;;5.03;88.97;100395.47;4954400;28;20066;-70
2021/12/15 16:42:18;;;;;;;1.55;1.45;;;;;;;5.09;88.96;100397.34;4954183;28;20049;-70
2021/12/15 16:44:50;;;;;;;6.65;2.30;;;;;;;5.01;89.05;100396.22;4953760;28;20035;-70
2021/12/15 16:47:19;;;;;;;2.08;1.55;;;;;;;4.85;89.35;100402.59;4953976;28;20114;-70
2021/12/15 16:52:27;;;;;;;9.75;4.68;;;;;;;4.85;89.57;100393.19;5069138;28;20383;-69
2021/12/15 16:54:57;;;;;;;4.70;2.35;;;;;;;5.04;89.51;100402.34;5069359;28;20044;-69
2021/12/15 16:57:26;;;;;;;2.28;2.10;;;;;;;4.96;89.38;100402.94;5069010;28;20488;-69
2021/12/15 16:59:52;;;;;;;1.30;1.20;;;;;;;4.88;90.13;100403.56;5067980;28;20021;-69
2021/12/15 17:02:23;;;;;;;1.45;1.35;;;;;;;5.00;89.61;100409.91;5069424;28;20021;-69